KBFM/BFM METAR and TAF weather

Enter ICAO airport designator
Station Type Date Time Source
KBFM METAR 2019/08/22 06:53 UTC NOAA

KBFM 220653Z AUTO 20003KT 10SM FEW017 SCT023 BKN075 28/23 A3003 RMK AO2 SLP170 T02780233


Station Type Date Time Source
KBFM Decoded METAR 2019/08/22 06:53 UTC NOAA

Station name not available
Aug 22, 2019 - 02:53 AM EDT / 2019.08.22 0653 UTC
Wind: from the SSW (200 degrees) at 3 MPH (3 KT):0
Visibility: 10 mile(s):0
Sky conditions: mostly cloudy
Temperature: 82.0 F (27.8 C)
Dew Point: 73.9 F (23.3 C)
Relative Humidity: 76%
Pressure (altimeter): 30.03 in. Hg (1016 hPa)
ob: KBFM 220653Z AUTO 20003KT 10SM FEW017 SCT023 BKN075 28/23 A3003 RMK AO2 SLP170 T02780233
cycle: 7

Station Type Date Time Source
KBFM TAF 2019/08/22 06:22 UTC NOAA

TAF KBFM 220520Z 2206/2306 00000KT P6SM FEW022
FM220900 06003KT P6SM VCSH SCT015 BKN150
FM221500 10004KT P6SM SCT025
FM221700 16010KT P6SM SCT030 BKN250 PROB30 2218/2224 4SM TSRA BKN020CB
FM230200 17004KT P6SM SCT200

Example: see airport list